To NAV CANADA Home Page Login to a new session Search on AWWS site Disclaimer Vers la page française équivalente Tips FAQ What's new on the site To the Forecasts and Observations / NOTAM section To "File a Flight Plan" website Publications and other links Update of the User's profile FIC Telephone Numbers My Weather Data Folder Route Weather Data Regional Weather Data Local Weather Data To the Forecasts and Observations / NOTAM section
Request Generated 04/12/2021 at 03:36:20 UTC . Weather information available at that time is displayed.

METAR/TAF

MONTREAL/PIERRE-ELLIOTT-TRUDEAU INTL/QC    

METAR CYUL 120300Z 04020G26KT 15SM BKN075 BKN240 10/01 A2973 RMK AC5CC2 SLP070=
METAR CYUL 120200Z 04020G26KT 15SM BKN067 11/01 A2972 RMK AC6 SLP067=
METAR CYUL 120100Z 04019G28KT 15SM FEW220 OVC250 12/01 A2971 RMK CC1CI7 SLP062=

TAF CYUL 120238Z 1203/1224 04015G25KT P6SM BKN060 OVC240
FM120700 05012G22KT P6SM SCT050 BKN240
FM121200 06015G25KT P6SM FEW020 BKN040 OVC240
RMK NXT FCST BY 120600Z=
Your time UTC time
Weather data provided by Environment Canada and NAV CANADA